sensor_id;sensor_type;location;lat;lon;timestamp;temperature;humidity
2897;DHT22;1458;49.728;9.228;2023-12-14T00:00:56;6.40;99.90
2897;DHT22;1458;49.728;9.228;2023-12-14T00:03:23;6.50;99.90
2897;DHT22;1458;49.728;9.228;2023-12-14T00:05:51;6.40;99.90
2897;DHT22;1458;49.728;9.228;2023-12-14T00:08:18;6.40;99.90
2897;DHT22;1458;49.728;9.228;2023-12-14T00:10:47;6.50;99.90
2897;DHT22;1458;49.728;9.228;2023-12-14T00:13:16;6.40;99.90
2897;DHT22;1458;49.728;9.228;2023-12-14T00:15:43;6.50;99.90
2897;DHT22;1458;49.728;9.228;2023-12-14T00:18:15;6.40;99.90
2897;DHT22;1458;49.728;9.228;2023-12-14T00:20:43;6.40;99.90
2897;DHT22;1458;49.728;9.228;2023-12-14T00:23:10;6.30;99.90
2897;DHT22;1458;49.728;9.228;2023-12-14T00:25:38;6.30;99.90
2897;DHT22;1458;49.728;9.228;2023-12-14T00:28:06;6.30;99.90
2897;DHT22;1458;49.728;9.228;2023-12-14T00:30:34;6.20;99.90
2897;DHT22;1458;49.728;9.228;2023-12-14T00:33:01;6.10;99.90
2897;DHT22;1458;49.728;9.228;2023-12-14T00:35:29;6.10;99.90
2897;DHT22;1458;49.728;9.228;2023-12-14T00:37:56;6.20;99.90
2897;DHT22;1458;49.728;9.228;2023-12-14T00:40:23;6.10;99.90
2897;DHT22;1458;49.728;9.228;2023-12-14T00:42:51;6.10;99.90
2897;DHT22;1458;49.728;9.228;2023-12-14T00:45:20;6.10;99.90
2897;DHT22;1458;49.728;9.228;2023-12-14T00:47:48;6.20;99.90
2897;DHT22;1458;49.728;9.228;2023-12-14T00:50:15;6.10;99.90
2897;DHT22;1458;49.728;9.228;2023-12-14T00:52:43;6.20;99.90
2897;DHT22;1458;49.728;9.228;2023-12-14T00:55:10;6.20;99.90
2897;DHT22;1458;49.728;9.228;2023-12-14T00:57:38;6.10;99.90
2897;DHT22;1458;49.728;9.228;2023-12-14T01:00:06;6.20;99.90
2897;DHT22;1458;49.728;9.228;2023-12-14T01:02:37;6.20;99.90
2897;DHT22;1458;49.728;9.228;2023-12-14T01:05:05;6.20;99.90
2897;DHT22;1458;49.728;9.228;2023-12-14T01:07:33;6.30;99.90
2897;DHT22;1458;49.728;9.228;2023-12-14T01:10:00;6.20;99.90
2897;DHT22;1458;49.728;9.228;2023-12-14T01:12:28;6.20;99.90
2897;DHT22;1458;49.728;9.228;2023-12-14T01:14:55;6.20;99.90
2897;DHT22;1458;49.728;9.228;2023-12-14T01:17:23;6.00;99.90
2897;DHT22;1458;49.728;9.228;2023-12-14T01:19:51;6.00;99.90
2897;DHT22;1458;49.728;9.228;2023-12-14T01:22:18;6.10;99.90
2897;DHT22;1458;49.728;9.228;2023-12-14T01:24:45;6.00;99.90
2897;DHT22;1458;49.728;9.228;2023-12-14T01:27:13;6.00;99.90
2897;DHT22;1458;49.728;9.228;2023-12-14T01:29:40;6.00;99.90
2897;DHT22;1458;49.728;9.228;2023-12-14T01:32:08;6.00;99.90
2897;DHT22;1458;49.728;9.228;2023-12-14T01:34:35;5.90;99.90
2897;DHT22;1458;49.728;9.228;2023-12-14T01:37:04;5.90;99.90
2897;DHT22;1458;49.728;9.228;2023-12-14T01:39:32;6.00;99.90
2897;DHT22;1458;49.728;9.228;2023-12-14T01:42:00;6.00;99.90
2897;DHT22;1458;49.728;9.228;2023-12-14T01:44:27;6.10;99.90
2897;DHT22;1458;49.728;9.228;2023-12-14T01:46:55;6.10;99.90
2897;DHT22;1458;49.728;9.228;2023-12-14T01:49:22;6.20;99.90
2897;DHT22;1458;49.728;9.228;2023-12-14T01:51:49;6.20;99.90
2897;DHT22;1458;49.728;9.228;2023-12-14T01:54:18;6.30;99.90
2897;DHT22;1458;49.728;9.228;2023-12-14T01:56:46;6.20;99.90
2897;DHT22;1458;49.728;9.228;2023-12-14T01:59:13;6.30;99.90
2897;DHT22;1458;49.728;9.228;2023-12-14T02:01:43;6.20;99.90
2897;DHT22;1458;49.728;9.228;2023-12-14T02:04:12;6.20;99.90
2897;DHT22;1458;49.728;9.228;2023-12-14T02:06:41;6.20;99.90
2897;DHT22;1458;49.728;9.228;2023-12-14T02:09:09;6.20;99.90
2897;DHT22;1458;49.728;9.228;2023-12-14T02:11:38;6.30;99.90
2897;DHT22;1458;49.728;9.228;2023-12-14T02:14:05;6.30;99.90
2897;DHT22;1458;49.728;9.228;2023-12-14T02:16:33;6.30;99.90
2897;DHT22;1458;49.728;9.228;2023-12-14T02:19:00;6.20;99.90
2897;DHT22;1458;49.728;9.228;2023-12-14T02:21:28;6.20;99.90
2897;DHT22;1458;49.728;9.228;2023-12-14T02:23:57;6.30;99.90
2897;DHT22;1458;49.728;9.228;2023-12-14T02:26:24;6.40;99.90
2897;DHT22;1458;49.728;9.228;2023-12-14T02:28:51;6.30;99.90
2897;DHT22;1458;49.728;9.228;2023-12-14T02:31:19;6.20;99.90
2897;DHT22;1458;49.728;9.228;2023-12-14T02:33:46;6.20;99.90
2897;DHT22;1458;49.728;9.228;2023-12-14T02:36:14;6.30;99.90
2897;DHT22;1458;49.728;9.228;2023-12-14T02:38:42;6.40;99.90
2897;DHT22;1458;49.728;9.228;2023-12-14T02:41:11;6.30;99.90
2897;DHT22;1458;49.728;9.228;2023-12-14T02:43:39;6.30;99.90
2897;DHT22;1458;49.728;9.228;2023-12-14T02:46:07;6.40;99.90
2897;DHT22;1458;49.728;9.228;2023-12-14T02:48:37;6.30;99.90
2897;DHT22;1458;49.728;9.228;2023-12-14T02:51:05;6.30;99.90
2897;DHT22;1458;49.728;9.228;2023-12-14T02:53:32;6.30;99.90
2897;DHT22;1458;49.728;9.228;2023-12-14T02:56:01;6.30;99.90
2897;DHT22;1458;49.728;9.228;2023-12-14T02:58:30;6.30;99.90
2897;DHT22;1458;49.728;9.228;2023-12-14T03:00:57;6.30;99.90
2897;DHT22;1458;49.728;9.228;2023-12-14T03:03:25;6.30;99.90
2897;DHT22;1458;49.728;9.228;2023-12-14T03:05:54;6.40;99.90
2897;DHT22;1458;49.728;9.228;2023-12-14T03:08:21;6.40;99.90
2897;DHT22;1458;49.728;9.228;2023-12-14T03:10:49;6.30;99.90
2897;DHT22;1458;49.728;9.228;2023-12-14T03:13:16;6.20;99.90
2897;DHT22;1458;49.728;9.228;2023-12-14T03:15:45;6.20;99.90
2897;DHT22;1458;49.728;9.228;2023-12-14T03:18:14;6.20;99.90
2897;DHT22;1458;49.728;9.228;2023-12-14T03:20:42;6.20;99.90
2897;DHT22;1458;49.728;9.228;2023-12-14T03:23:09;6.20;99.90
2897;DHT22;1458;49.728;9.228;2023-12-14T03:25:37;6.20;99.90
2897;DHT22;1458;49.728;9.228;2023-12-14T03:28:04;6.20;99.90
2897;DHT22;1458;49.728;9.228;2023-12-14T03:30:31;6.30;99.90
2897;DHT22;1458;49.728;9.228;2023-12-14T03:33:00;6.40;99.90
2897;DHT22;1458;49.728;9.228;2023-12-14T03:35:28;6.20;99.90
2897;DHT22;1458;49.728;9.228;2023-12-14T03:37:57;6.10;99.90
2897;DHT22;1458;49.728;9.228;2023-12-14T03:40:25;6.10;99.90
2897;DHT22;1458;49.728;9.228;2023-12-14T03:42:52;6.20;99.90
2897;DHT22;1458;49.728;9.228;2023-12-14T03:45:23;6.20;99.90
2897;DHT22;1458;49.728;9.228;2023-12-14T03:47:50;6.30;99.90
2897;DHT22;1458;49.728;9.228;2023-12-14T03:50:19;6.20;99.90
2897;DHT22;1458;49.728;9.228;2023-12-14T03:52:46;6.10;99.90
2897;DHT22;1458;49.728;9.228;2023-12-14T03:55:14;6.00;99.90
2897;DHT22;1458;49.728;9.228;2023-12-14T03:57:41;6.00;99.90
2897;DHT22;1458;49.728;9.228;2023-12-14T04:00:11;5.90;99.90
2897;DHT22;1458;49.728;9.228;2023-12-14T04:02:40;5.90;99.90
2897;DHT22;1458;49.728;9.228;2023-12-14T04:05:08;5.90;99.90
2897;DHT22;1458;49.728;9.228;2023-12-14T04:07:38;5.90;99.90
2897;DHT22;1458;49.728;9.228;2023-12-14T04:10:07;5.90;99.90
2897;DHT22;1458;49.728;9.228;2023-12-14T04:12:35;6.00;99.90
2897;DHT22;1458;49.728;9.228;2023-12-14T04:15:03;6.00;99.90
2897;DHT22;1458;49.728;9.228;2023-12-14T04:17:32;6.10;99.90
2897;DHT22;1458;49.728;9.228;2023-12-14T04:20:00;6.10;99.90
2897;DHT22;1458;49.728;9.228;2023-12-14T04:22:28;6.10;99.90
2897;DHT22;1458;49.728;9.228;2023-12-14T04:24:57;6.10;99.90
2897;DHT22;1458;49.728;9.228;2023-12-14T04:27:24;6.10;99.90
2897;DHT22;1458;49.728;9.228;2023-12-14T04:29:54;6.10;99.90
2897;DHT22;1458;49.728;9.228;2023-12-14T04:32:22;6.10;99.90
2897;DHT22;1458;49.728;9.228;2023-12-14T04:34:49;6.10;99.90
2897;DHT22;1458;49.728;9.228;2023-12-14T04:37:16;6.10;99.90
2897;DHT22;1458;49.728;9.228;2023-12-14T04:39:44;6.20;99.90
2897;DHT22;1458;49.728;9.228;2023-12-14T04:42:14;6.00;99.90
2897;DHT22;1458;49.728;9.228;2023-12-14T04:44:41;5.90;99.90
2897;DHT22;1458;49.728;9.228;2023-12-14T04:47:08;5.90;99.90
2897;DHT22;1458;49.728;9.228;2023-12-14T04:49:36;5.90;99.90
2897;DHT22;1458;49.728;9.228;2023-12-14T04:52:04;5.80;99.90
2897;DHT22;1458;49.728;9.228;2023-12-14T04:54:31;5.80;99.90
2897;DHT22;1458;49.728;9.228;2023-12-14T04:56:59;5.70;99.90
2897;DHT22;1458;49.728;9.228;2023-12-14T04:59:27;5.60;99.90
2897;DHT22;1458;49.728;9.228;2023-12-14T05:01:55;5.40;99.90
2897;DHT22;1458;49.728;9.228;2023-12-14T05:04:22;5.40;99.90
2897;DHT22;1458;49.728;9.228;2023-12-14T05:06:50;5.40;99.90
2897;DHT22;1458;49.728;9.228;2023-12-14T05:09:17;5.40;99.90
2897;DHT22;1458;49.728;9.228;2023-12-14T05:11:45;5.40;99.90
2897;DHT22;1458;49.728;9.228;2023-12-14T05:14:12;5.40;99.90
2897;DHT22;1458;49.728;9.228;2023-12-14T05:16:41;5.40;99.90
2897;DHT22;1458;49.728;9.228;2023-12-14T05:19:08;5.60;99.90
2897;DHT22;1458;49.728;9.228;2023-12-14T05:21:36;5.60;99.90
2897;DHT22;1458;49.728;9.228;2023-12-14T05:24:03;5.70;99.90
2897;DHT22;1458;49.728;9.228;2023-12-14T05:26:31;5.70;99.90
2897;DHT22;1458;49.728;9.228;2023-12-14T05:28:59;5.60;99.90
2897;DHT22;1458;49.728;9.228;2023-12-14T05:31:26;5.60;99.90
2897;DHT22;1458;49.728;9.228;2023-12-14T05:33:55;5.60;99.90
2897;DHT22;1458;49.728;9.228;2023-12-14T05:36:22;5.60;99.90
2897;DHT22;1458;49.728;9.228;2023-12-14T05:38:50;5.70;99.90
2897;DHT22;1458;49.728;9.228;2023-12-14T05:41:17;5.70;99.90
2897;DHT22;1458;49.728;9.228;2023-12-14T05:43:45;5.70;99.90
2897;DHT22;1458;49.728;9.228;2023-12-14T05:46:20;5.70;99.90
2897;DHT22;1458;49.728;9.228;2023-12-14T05:48:48;5.60;99.90
2897;DHT22;1458;49.728;9.228;2023-12-14T05:51:28;5.60;99.90
2897;DHT22;1458;49.728;9.228;2023-12-14T05:53:55;5.70;99.90
2897;DHT22;1458;49.728;9.228;2023-12-14T05:56:23;5.70;99.90
2897;DHT22;1458;49.728;9.228;2023-12-14T05:58:51;5.60;99.90
2897;DHT22;1458;49.728;9.228;2023-12-14T06:01:18;5.50;99.90
2897;DHT22;1458;49.728;9.228;2023-12-14T06:03:46;5.40;99.90
2897;DHT22;1458;49.728;9.228;2023-12-14T06:06:14;5.30;99.90
2897;DHT22;1458;49.728;9.228;2023-12-14T06:08:42;5.30;99.90
2897;DHT22;1458;49.728;9.228;2023-12-14T06:11:10;5.40;99.90
2897;DHT22;1458;49.728;9.228;2023-12-14T06:13:37;5.40;99.90
2897;DHT22;1458;49.728;9.228;2023-12-14T06:16:06;5.30;99.90
2897;DHT22;1458;49.728;9.228;2023-12-14T06:18:39;5.20;99.90
2897;DHT22;1458;49.728;9.228;2023-12-14T06:21:07;5.10;99.90
2897;DHT22;1458;49.728;9.228;2023-12-14T06:23:35;5.10;99.90
2897;DHT22;1458;49.728;9.228;2023-12-14T06:26:05;5.10;99.90
2897;DHT22;1458;49.728;9.228;2023-12-14T06:28:32;5.10;99.90
2897;DHT22;1458;49.728;9.228;2023-12-14T06:31:00;5.30;99.90
2897;DHT22;1458;49.728;9.228;2023-12-14T06:33:28;5.30;99.90
2897;DHT22;1458;49.728;9.228;2023-12-14T06:35:55;5.30;99.90
2897;DHT22;1458;49.728;9.228;2023-12-14T06:38:23;5.20;99.90
2897;DHT22;1458;49.728;9.228;2023-12-14T06:40:50;5.20;99.90
2897;DHT22;1458;49.728;9.228;2023-12-14T06:43:19;5.20;99.90
2897;DHT22;1458;49.728;9.228;2023-12-14T06:45:46;5.10;99.90
2897;DHT22;1458;49.728;9.228;2023-12-14T06:48:14;5.10;99.90
2897;DHT22;1458;49.728;9.228;2023-12-14T06:50:41;5.30;99.90
2897;DHT22;1458;49.728;9.228;2023-12-14T06:53:09;5.20;99.90
2897;DHT22;1458;49.728;9.228;2023-12-14T06:55:36;5.30;99.90
2897;DHT22;1458;49.728;9.228;2023-12-14T06:58:04;5.40;99.90
2897;DHT22;1458;49.728;9.228;2023-12-14T07:00:38;5.40;99.90
2897;DHT22;1458;49.728;9.228;2023-12-14T07:03:05;5.30;99.90
2897;DHT22;1458;49.728;9.228;2023-12-14T07:05:33;5.30;99.90
2897;DHT22;1458;49.728;9.228;2023-12-14T07:08:00;5.30;99.90
2897;DHT22;1458;49.728;9.228;2023-12-14T07:10:27;5.40;99.90
2897;DHT22;1458;49.728;9.228;2023-12-14T07:12:55;5.40;99.90
2897;DHT22;1458;49.728;9.228;2023-12-14T07:15:22;5.40;99.90
2897;DHT22;1458;49.728;9.228;2023-12-14T07:17:51;5.50;99.90
2897;DHT22;1458;49.728;9.228;2023-12-14T07:20:19;5.60;99.90
2897;DHT22;1458;49.728;9.228;2023-12-14T07:22:47;5.50;99.90
2897;DHT22;1458;49.728;9.228;2023-12-14T07:25:15;5.40;99.90
2897;DHT22;1458;49.728;9.228;2023-12-14T07:27:42;5.30;99.90
2897;DHT22;1458;49.728;9.228;2023-12-14T07:30:10;5.20;99.90
2897;DHT22;1458;49.728;9.228;2023-12-14T07:32:38;5.30;99.90
2897;DHT22;1458;49.728;9.228;2023-12-14T07:35:07;5.30;99.90
2897;DHT22;1458;49.728;9.228;2023-12-14T07:37:36;5.50;99.90
2897;DHT22;1458;49.728;9.228;2023-12-14T07:40:04;5.50;99.90
2897;DHT22;1458;49.728;9.228;2023-12-14T07:42:32;5.50;99.90
2897;DHT22;1458;49.728;9.228;2023-12-14T07:45:00;5.50;99.90
2897;DHT22;1458;49.728;9.228;2023-12-14T07:47:27;5.60;99.90
2897;DHT22;1458;49.728;9.228;2023-12-14T07:49:54;5.60;99.90
2897;DHT22;1458;49.728;9.228;2023-12-14T07:52:23;5.70;99.90
2897;DHT22;1458;49.728;9.228;2023-12-14T07:54:51;5.70;99.90
2897;DHT22;1458;49.728;9.228;2023-12-14T07:57:18;5.70;99.90
2897;DHT22;1458;49.728;9.228;2023-12-14T07:59:46;5.60;99.90
2897;DHT22;1458;49.728;9.228;2023-12-14T08:02:13;5.70;99.90
2897;DHT22;1458;49.728;9.228;2023-12-14T08:04:41;5.70;99.90
2897;DHT22;1458;49.728;9.228;2023-12-14T08:07:08;5.70;99.90
2897;DHT22;1458;49.728;9.228;2023-12-14T08:09:37;5.80;99.90
2897;DHT22;1458;49.728;9.228;2023-12-14T08:12:05;5.70;99.90
2897;DHT22;1458;49.728;9.228;2023-12-14T08:14:33;5.80;99.90
2897;DHT22;1458;49.728;9.228;2023-12-14T08:17:01;5.90;99.90
2897;DHT22;1458;49.728;9.228;2023-12-14T08:19:28;5.90;99.90
2897;DHT22;1458;49.728;9.228;2023-12-14T08:21:58;5.80;99.90
2897;DHT22;1458;49.728;9.228;2023-12-14T08:24:25;5.80;99.90
2897;DHT22;1458;49.728;9.228;2023-12-14T08:26:55;6.00;99.90
2897;DHT22;1458;49.728;9.228;2023-12-14T08:29:22;6.10;99.90
2897;DHT22;1458;49.728;9.228;2023-12-14T08:31:53;6.00;99.90
2897;DHT22;1458;49.728;9.228;2023-12-14T08:34:22;6.10;99.90
2897;DHT22;1458;49.728;9.228;2023-12-14T08:36:50;6.30;99.90
2897;DHT22;1458;49.728;9.228;2023-12-14T08:39:17;6.40;99.90
2897;DHT22;1458;49.728;9.228;2023-12-14T08:41:45;6.40;99.90
2897;DHT22;1458;49.728;9.228;2023-12-14T08:44:15;6.40;99.90
2897;DHT22;1458;49.728;9.228;2023-12-14T08:46:45;6.30;99.90
2897;DHT22;1458;49.728;9.228;2023-12-14T08:49:13;6.30;99.90
2897;DHT22;1458;49.728;9.228;2023-12-14T08:51:42;6.40;99.90
2897;DHT22;1458;49.728;9.228;2023-12-14T08:54:10;6.40;99.90
2897;DHT22;1458;49.728;9.228;2023-12-14T08:56:37;6.50;99.90
2897;DHT22;1458;49.728;9.228;2023-12-14T08:59:05;6.60;99.90
2897;DHT22;1458;49.728;9.228;2023-12-14T09:01:34;6.70;99.90
2897;DHT22;1458;49.728;9.228;2023-12-14T09:04:02;6.60;99.90
2897;DHT22;1458;49.728;9.228;2023-12-14T09:06:29;6.60;99.90
2897;DHT22;1458;49.728;9.228;2023-12-14T09:08:57;6.70;99.90
2897;DHT22;1458;49.728;9.228;2023-12-14T09:11:24;6.70;99.90
2897;DHT22;1458;49.728;9.228;2023-12-14T09:13:51;6.70;99.90
2897;DHT22;1458;49.728;9.228;2023-12-14T09:16:19;6.80;99.90
2897;DHT22;1458;49.728;9.228;2023-12-14T09:18:48;6.80;99.90
2897;DHT22;1458;49.728;9.228;2023-12-14T09:21:15;6.90;99.90
2897;DHT22;1458;49.728;9.228;2023-12-14T09:23:42;6.80;99.90
2897;DHT22;1458;49.728;9.228;2023-12-14T09:26:10;6.80;99.90
2897;DHT22;1458;49.728;9.228;2023-12-14T09:28:37;6.80;99.90
2897;DHT22;1458;49.728;9.228;2023-12-14T09:31:05;6.80;99.90
2897;DHT22;1458;49.728;9.228;2023-12-14T09:33:32;6.80;99.90
2897;DHT22;1458;49.728;9.228;2023-12-14T09:36:01;6.80;99.90
2897;DHT22;1458;49.728;9.228;2023-12-14T09:38:29;6.90;99.90
2897;DHT22;1458;49.728;9.228;2023-12-14T09:40:57;6.90;99.90
2897;DHT22;1458;49.728;9.228;2023-12-14T09:43:24;7.10;99.90
2897;DHT22;1458;49.728;9.228;2023-12-14T09:45:52;7.20;99.90
2897;DHT22;1458;49.728;9.228;2023-12-14T09:48:22;7.10;99.90
2897;DHT22;1458;49.728;9.228;2023-12-14T09:50:50;7.10;99.90
2897;DHT22;1458;49.728;9.228;2023-12-14T09:53:19;7.10;99.90
2897;DHT22;1458;49.728;9.228;2023-12-14T09:55:47;7.00;99.90
2897;DHT22;1458;49.728;9.228;2023-12-14T09:58:15;7.00;99.90
2897;DHT22;1458;49.728;9.228;2023-12-14T10:00:47;7.00;99.90
2897;DHT22;1458;49.728;9.228;2023-12-14T10:03:19;7.10;99.90
2897;DHT22;1458;49.728;9.228;2023-12-14T10:05:48;7.10;99.90
2897;DHT22;1458;49.728;9.228;2023-12-14T10:08:17;7.10;99.90
2897;DHT22;1458;49.728;9.228;2023-12-14T10:10:48;7.30;99.90
2897;DHT22;1458;49.728;9.228;2023-12-14T10:13:17;7.40;99.90
2897;DHT22;1458;49.728;9.228;2023-12-14T10:15:46;7.50;99.90
2897;DHT22;1458;49.728;9.228;2023-12-14T10:18:21;7.70;99.90
2897;DHT22;1458;49.728;9.228;2023-12-14T10:20:50;7.80;99.90
2897;DHT22;1458;49.728;9.228;2023-12-14T10:23:20;8.00;99.90
2897;DHT22;1458;49.728;9.228;2023-12-14T10:25:48;7.90;99.90
2897;DHT22;1458;49.728;9.228;2023-12-14T10:28:17;7.90;99.90
2897;DHT22;1458;49.728;9.228;2023-12-14T10:30:44;7.90;99.90
2897;DHT22;1458;49.728;9.228;2023-12-14T10:33:12;7.90;99.90
2897;DHT22;1458;49.728;9.228;2023-12-14T10:35:41;7.90;99.90
2897;DHT22;1458;49.728;9.228;2023-12-14T10:38:12;7.80;99.90
2897;DHT22;1458;49.728;9.228;2023-12-14T10:40:50;7.70;99.90
2897;DHT22;1458;49.728;9.228;2023-12-14T10:43:22;7.70;99.90
2897;DHT22;1458;49.728;9.228;2023-12-14T10:45:50;7.60;99.90
2897;DHT22;1458;49.728;9.228;2023-12-14T10:48:20;7.60;99.90
2897;DHT22;1458;49.728;9.228;2023-12-14T10:50:48;7.60;99.90
2897;DHT22;1458;49.728;9.228;2023-12-14T10:53:17;7.60;99.90
2897;DHT22;1458;49.728;9.228;2023-12-14T10:55:47;7.70;99.90
2897;DHT22;1458;49.728;9.228;2023-12-14T10:58:17;7.90;99.90
2897;DHT22;1458;49.728;9.228;2023-12-14T11:00:59;7.90;99.90
2897;DHT22;1458;49.728;9.228;2023-12-14T11:03:33;7.70;99.90
2897;DHT22;1458;49.728;9.228;2023-12-14T11:06:01;7.80;99.90
2897;DHT22;1458;49.728;9.228;2023-12-14T11:08:30;7.80;99.90
2897;DHT22;1458;49.728;9.228;2023-12-14T11:11:05;7.80;99.90
2897;DHT22;1458;49.728;9.228;2023-12-14T11:13:36;7.80;99.90
2897;DHT22;1458;49.728;9.228;2023-12-14T11:16:08;7.80;99.90
2897;DHT22;1458;49.728;9.228;2023-12-14T11:18:35;7.80;99.90
2897;DHT22;1458;49.728;9.228;2023-12-14T11:21:03;7.70;99.90
2897;DHT22;1458;49.728;9.228;2023-12-14T11:23:33;7.80;99.90
2897;DHT22;1458;49.728;9.228;2023-12-14T11:26:05;7.80;99.90
2897;DHT22;1458;49.728;9.228;2023-12-14T11:28:34;7.70;99.90
2897;DHT22;1458;49.728;9.228;2023-12-14T11:31:03;7.80;99.90
2897;DHT22;1458;49.728;9.228;2023-12-14T11:33:32;7.90;99.90
2897;DHT22;1458;49.728;9.228;2023-12-14T11:36:01;7.90;99.90
2897;DHT22;1458;49.728;9.228;2023-12-14T11:38:30;7.90;99.90
2897;DHT22;1458;49.728;9.228;2023-12-14T11:40:58;7.90;99.90
2897;DHT22;1458;49.728;9.228;2023-12-14T11:43:27;7.90;99.90
2897;DHT22;1458;49.728;9.228;2023-12-14T11:45:55;7.90;99.90
2897;DHT22;1458;49.728;9.228;2023-12-14T11:48:22;7.90;99.90
2897;DHT22;1458;49.728;9.228;2023-12-14T11:50:50;8.00;99.90
2897;DHT22;1458;49.728;9.228;2023-12-14T11:53:18;8.00;99.90
2897;DHT22;1458;49.728;9.228;2023-12-14T11:55:45;8.00;99.90
2897;DHT22;1458;49.728;9.228;2023-12-14T11:58:14;8.00;99.90
2897;DHT22;1458;49.728;9.228;2023-12-14T12:00:44;8.00;99.90
2897;DHT22;1458;49.728;9.228;2023-12-14T12:03:14;7.90;99.90
2897;DHT22;1458;49.728;9.228;2023-12-14T12:05:43;7.90;99.90
2897;DHT22;1458;49.728;9.228;2023-12-14T12:08:12;7.80;99.90
2897;DHT22;1458;49.728;9.228;2023-12-14T12:10:42;7.70;99.90
2897;DHT22;1458;49.728;9.228;2023-12-14T12:13:12;7.70;99.90
2897;DHT22;1458;49.728;9.228;2023-12-14T12:15:41;7.60;99.90
2897;DHT22;1458;49.728;9.228;2023-12-14T12:18:11;7.60;99.90
2897;DHT22;1458;49.728;9.228;2023-12-14T12:20:39;7.70;99.90
2897;DHT22;1458;49.728;9.228;2023-12-14T12:23:07;7.70;99.90
2897;DHT22;1458;49.728;9.228;2023-12-14T12:25:36;7.60;99.90
2897;DHT22;1458;49.728;9.228;2023-12-14T12:28:04;7.50;99.90
2897;DHT22;1458;49.728;9.228;2023-12-14T12:30:31;7.50;99.90
2897;DHT22;1458;49.728;9.228;2023-12-14T12:32:59;7.60;99.90
2897;DHT22;1458;49.728;9.228;2023-12-14T12:35:28;7.60;99.90
2897;DHT22;1458;49.728;9.228;2023-12-14T12:37:56;7.60;99.90
2897;DHT22;1458;49.728;9.228;2023-12-14T12:40:24;7.60;99.90
2897;DHT22;1458;49.728;9.228;2023-12-14T12:42:52;7.60;99.90
2897;DHT22;1458;49.728;9.228;2023-12-14T12:45:20;7.60;99.90
2897;DHT22;1458;49.728;9.228;2023-12-14T12:47:50;7.50;99.90
2897;DHT22;1458;49.728;9.228;2023-12-14T12:50:18;7.40;99.90
2897;DHT22;1458;49.728;9.228;2023-12-14T12:52:47;7.40;99.90
2897;DHT22;1458;49.728;9.228;2023-12-14T12:55:15;7.50;99.90
2897;DHT22;1458;49.728;9.228;2023-12-14T12:57:43;7.50;99.90
2897;DHT22;1458;49.728;9.228;2023-12-14T13:00:11;7.50;99.90
2897;DHT22;1458;49.728;9.228;2023-12-14T13:02:40;7.50;99.90
2897;DHT22;1458;49.728;9.228;2023-12-14T13:05:09;7.50;99.90
2897;DHT22;1458;49.728;9.228;2023-12-14T13:07:38;7.60;99.90
2897;DHT22;1458;49.728;9.228;2023-12-14T13:10:07;7.60;99.90
2897;DHT22;1458;49.728;9.228;2023-12-14T13:12:36;7.60;99.90
2897;DHT22;1458;49.728;9.228;2023-12-14T13:15:04;7.70;99.90
2897;DHT22;1458;49.728;9.228;2023-12-14T13:17:32;7.70;99.90
2897;DHT22;1458;49.728;9.228;2023-12-14T13:20:00;7.70;99.90
2897;DHT22;1458;49.728;9.228;2023-12-14T13:22:28;7.70;99.90
2897;DHT22;1458;49.728;9.228;2023-12-14T13:24:56;7.80;99.90
2897;DHT22;1458;49.728;9.228;2023-12-14T13:27:25;7.80;99.90
2897;DHT22;1458;49.728;9.228;2023-12-14T13:29:53;7.80;99.90
2897;DHT22;1458;49.728;9.228;2023-12-14T13:32:22;7.80;99.90
2897;DHT22;1458;49.728;9.228;2023-12-14T13:34:49;7.80;99.90
2897;DHT22;1458;49.728;9.228;2023-12-14T13:37:17;7.80;99.90
2897;DHT22;1458;49.728;9.228;2023-12-14T13:39:44;7.90;99.90
2897;DHT22;1458;49.728;9.228;2023-12-14T13:42:13;7.90;99.90
2897;DHT22;1458;49.728;9.228;2023-12-14T13:44:43;7.90;99.90
2897;DHT22;1458;49.728;9.228;2023-12-14T13:47:10;7.90;99.90
2897;DHT22;1458;49.728;9.228;2023-12-14T13:49:38;7.90;99.90
2897;DHT22;1458;49.728;9.228;2023-12-14T13:52:05;7.90;99.90
2897;DHT22;1458;49.728;9.228;2023-12-14T13:54:33;7.90;99.90
2897;DHT22;1458;49.728;9.228;2023-12-14T13:57:02;7.90;99.90
2897;DHT22;1458;49.728;9.228;2023-12-14T13:59:30;8.00;99.90
2897;DHT22;1458;49.728;9.228;2023-12-14T14:01:59;8.00;99.90
2897;DHT22;1458;49.728;9.228;2023-12-14T14:04:27;7.90;99.90
2897;DHT22;1458;49.728;9.228;2023-12-14T14:06:54;8.00;99.90
2897;DHT22;1458;49.728;9.228;2023-12-14T14:09:22;8.00;99.90
2897;DHT22;1458;49.728;9.228;2023-12-14T14:11:50;7.90;99.90
2897;DHT22;1458;49.728;9.228;2023-12-14T14:14:17;7.80;99.90
2897;DHT22;1458;49.728;9.228;2023-12-14T14:16:48;7.80;99.90
2897;DHT22;1458;49.728;9.228;2023-12-14T14:19:17;7.80;99.90
2897;DHT22;1458;49.728;9.228;2023-12-14T14:21:45;7.70;99.90
2897;DHT22;1458;49.728;9.228;2023-12-14T14:24:14;7.70;99.90
2897;DHT22;1458;49.728;9.228;2023-12-14T14:26:41;7.60;99.90
2897;DHT22;1458;49.728;9.228;2023-12-14T14:29:09;7.60;99.90
2897;DHT22;1458;49.728;9.228;2023-12-14T14:31:37;7.70;99.90
2897;DHT22;1458;49.728;9.228;2023-12-14T14:34:04;7.60;99.90
2897;DHT22;1458;49.728;9.228;2023-12-14T14:36:34;7.60;99.90
2897;DHT22;1458;49.728;9.228;2023-12-14T14:39:01;7.60;99.90
2897;DHT22;1458;49.728;9.228;2023-12-14T14:41:30;7.50;99.90
2897;DHT22;1458;49.728;9.228;2023-12-14T14:43:58;7.50;99.90
2897;DHT22;1458;49.728;9.228;2023-12-14T14:46:25;7.50;99.90
2897;DHT22;1458;49.728;9.228;2023-12-14T14:48:54;7.50;99.90
2897;DHT22;1458;49.728;9.228;2023-12-14T14:51:22;7.50;99.90
2897;DHT22;1458;49.728;9.228;2023-12-14T14:53:52;7.50;99.90
2897;DHT22;1458;49.728;9.228;2023-12-14T14:56:20;7.60;99.90
2897;DHT22;1458;49.728;9.228;2023-12-14T14:58:47;7.50;99.90
2897;DHT22;1458;49.728;9.228;2023-12-14T15:01:15;7.50;99.90
2897;DHT22;1458;49.728;9.228;2023-12-14T15:03:43;7.40;99.90
2897;DHT22;1458;49.728;9.228;2023-12-14T15:06:11;7.50;99.90
2897;DHT22;1458;49.728;9.228;2023-12-14T15:08:39;7.50;99.90
2897;DHT22;1458;49.728;9.228;2023-12-14T15:11:08;7.50;99.90
2897;DHT22;1458;49.728;9.228;2023-12-14T15:13:36;7.50;99.90
2897;DHT22;1458;49.728;9.228;2023-12-14T15:16:05;7.50;99.90
2897;DHT22;1458;49.728;9.228;2023-12-14T15:18:34;7.40;99.90
2897;DHT22;1458;49.728;9.228;2023-12-14T15:21:07;7.30;99.90
2897;DHT22;1458;49.728;9.228;2023-12-14T15:23:34;7.20;99.90
2897;DHT22;1458;49.728;9.228;2023-12-14T15:26:02;7.30;99.90
2897;DHT22;1458;49.728;9.228;2023-12-14T15:28:32;7.30;99.90
2897;DHT22;1458;49.728;9.228;2023-12-14T15:30:59;7.30;99.90
2897;DHT22;1458;49.728;9.228;2023-12-14T15:33:27;7.30;99.90
2897;DHT22;1458;49.728;9.228;2023-12-14T15:35:55;7.20;99.90
2897;DHT22;1458;49.728;9.228;2023-12-14T15:38:22;7.20;99.90
2897;DHT22;1458;49.728;9.228;2023-12-14T15:40:50;7.20;99.90
2897;DHT22;1458;49.728;9.228;2023-12-14T15:43:17;7.20;99.90
2897;DHT22;1458;49.728;9.228;2023-12-14T15:45:46;7.10;99.90
2897;DHT22;1458;49.728;9.228;2023-12-14T15:48:14;7.20;99.90
2897;DHT22;1458;49.728;9.228;2023-12-14T15:50:42;7.20;99.90
2897;DHT22;1458;49.728;9.228;2023-12-14T15:53:09;7.20;99.90
2897;DHT22;1458;49.728;9.228;2023-12-14T15:55:37;7.20;99.90
2897;DHT22;1458;49.728;9.228;2023-12-14T15:58:04;7.20;99.90
2897;DHT22;1458;49.728;9.228;2023-12-14T16:00:32;7.20;99.90
2897;DHT22;1458;49.728;9.228;2023-12-14T16:03:01;7.10;99.90
2897;DHT22;1458;49.728;9.228;2023-12-14T16:05:29;7.10;99.90
2897;DHT22;1458;49.728;9.228;2023-12-14T16:07:56;7.00;99.90
2897;DHT22;1458;49.728;9.228;2023-12-14T16:10:24;7.00;99.90
2897;DHT22;1458;49.728;9.228;2023-12-14T16:12:51;7.00;99.90
2897;DHT22;1458;49.728;9.228;2023-12-14T16:15:19;7.00;99.90
2897;DHT22;1458;49.728;9.228;2023-12-14T16:17:47;7.00;99.90
2897;DHT22;1458;49.728;9.228;2023-12-14T16:20:16;7.00;99.90
2897;DHT22;1458;49.728;9.228;2023-12-14T16:22:45;6.90;99.90